sensor_id;sensor_type;location;lat;lon;timestamp;P1;durP1;ratioP1;P2;durP2;ratioP2
8604;SDS011;4340;52.516;13.468;2022-08-01T00:00:05;5.40;;;5.00;;
8604;SDS011;4340;52.516;13.468;2022-08-01T00:02:33;5.23;;;4.70;;
8604;SDS011;4340;52.516;13.468;2022-08-01T00:04:59;6.10;;;5.50;;
8604;SDS011;4340;52.516;13.468;2022-08-01T00:07:26;6.53;;;5.17;;
8604;SDS011;4340;52.516;13.468;2022-08-01T00:09:53;5.90;;;5.30;;
8604;SDS011;4340;52.516;13.468;2022-08-01T00:12:19;5.97;;;5.57;;
8604;SDS011;4340;52.516;13.468;2022-08-01T00:14:47;5.90;;;5.40;;
8604;SDS011;4340;52.516;13.468;2022-08-01T00:17:13;5.80;;;5.20;;
8604;SDS011;4340;52.516;13.468;2022-08-01T00:19:40;5.83;;;5.30;;
8604;SDS011;4340;52.516;13.468;2022-08-01T00:22:07;10.43;;;5.60;;
8604;SDS011;4340;52.516;13.468;2022-08-01T00:24:33;6.33;;;5.57;;
8604;SDS011;4340;52.516;13.468;2022-08-01T00:27:00;6.00;;;5.60;;
8604;SDS011;4340;52.516;13.468;2022-08-01T00:29:26;6.23;;;5.67;;
8604;SDS011;4340;52.516;13.468;2022-08-01T00:31:54;6.20;;;5.43;;
8604;SDS011;4340;52.516;13.468;2022-08-01T00:34:21;6.93;;;6.23;;
8604;SDS011;4340;52.516;13.468;2022-08-01T00:36:47;7.10;;;5.53;;
8604;SDS011;4340;52.516;13.468;2022-08-01T00:39:14;7.37;;;5.70;;
8604;SDS011;4340;52.516;13.468;2022-08-01T00:41:40;6.73;;;5.47;;
8604;SDS011;4340;52.516;13.468;2022-08-01T00:44:07;6.20;;;5.70;;
8604;SDS011;4340;52.516;13.468;2022-08-01T00:46:33;6.50;;;6.00;;
8604;SDS011;4340;52.516;13.468;2022-08-01T00:49:01;6.67;;;6.07;;
8604;SDS011;4340;52.516;13.468;2022-08-01T00:51:28;6.37;;;5.70;;
8604;SDS011;4340;52.516;13.468;2022-08-01T00:53:56;6.57;;;6.07;;
8604;SDS011;4340;52.516;13.468;2022-08-01T00:56:24;6.33;;;5.60;;
8604;SDS011;4340;52.516;13.468;2022-08-01T00:58:51;6.33;;;5.70;;
8604;SDS011;4340;52.516;13.468;2022-08-01T01:01:18;7.10;;;6.50;;
8604;SDS011;4340;52.516;13.468;2022-08-01T01:03:45;7.10;;;6.40;;
8604;SDS011;4340;52.516;13.468;2022-08-01T01:06:23;6.33;;;5.93;;
8604;SDS011;4340;52.516;13.468;2022-08-01T01:08:55;7.20;;;6.50;;
8604;SDS011;4340;52.516;13.468;2022-08-01T01:11:32;6.07;;;5.67;;
8604;SDS011;4340;52.516;13.468;2022-08-01T01:14:10;7.13;;;6.53;;
8604;SDS011;4340;52.516;13.468;2022-08-01T01:16:47;7.67;;;6.97;;
8604;SDS011;4340;52.516;13.468;2022-08-01T01:19:16;6.67;;;6.23;;
8604;SDS011;4340;52.516;13.468;2022-08-01T01:21:58;7.00;;;6.47;;
8604;SDS011;4340;52.516;13.468;2022-08-01T01:24:45;7.10;;;6.50;;
8604;SDS011;4340;52.516;13.468;2022-08-01T01:27:21;7.43;;;6.73;;
8604;SDS011;4340;52.516;13.468;2022-08-01T01:29:56;6.60;;;6.20;;
8604;SDS011;4340;52.516;13.468;2022-08-01T01:32:26;6.20;;;5.70;;
8604;SDS011;4340;52.516;13.468;2022-08-01T01:34:58;7.00;;;6.40;;
8604;SDS011;4340;52.516;13.468;2022-08-01T01:37:27;6.67;;;6.07;;
8604;SDS011;4340;52.516;13.468;2022-08-01T01:39:57;6.67;;;6.10;;
8604;SDS011;4340;52.516;13.468;2022-08-01T01:42:25;6.90;;;6.30;;
8604;SDS011;4340;52.516;13.468;2022-08-01T01:44:52;6.73;;;6.30;;
8604;SDS011;4340;52.516;13.468;2022-08-01T01:47:22;7.37;;;6.67;;
8604;SDS011;4340;52.516;13.468;2022-08-01T01:49:50;7.20;;;6.70;;
8604;SDS011;4340;52.516;13.468;2022-08-01T01:52:19;8.13;;;7.40;;
8604;SDS011;4340;52.516;13.468;2022-08-01T01:54:47;7.23;;;6.60;;
8604;SDS011;4340;52.516;13.468;2022-08-01T01:57:16;7.67;;;6.97;;
8604;SDS011;4340;52.516;13.468;2022-08-01T01:59:44;7.77;;;6.70;;
8604;SDS011;4340;52.516;13.468;2022-08-01T02:02:14;7.40;;;6.70;;
8604;SDS011;4340;52.516;13.468;2022-08-01T02:04:42;7.67;;;6.40;;
8604;SDS011;4340;52.516;13.468;2022-08-01T02:07:11;6.87;;;6.20;;
8604;SDS011;4340;52.516;13.468;2022-08-01T02:09:42;7.87;;;7.20;;
8604;SDS011;4340;52.516;13.468;2022-08-01T02:12:11;6.83;;;6.27;;
8604;SDS011;4340;52.516;13.468;2022-08-01T02:14:39;7.13;;;6.53;;
8604;SDS011;4340;52.516;13.468;2022-08-01T02:17:06;7.37;;;6.60;;
8604;SDS011;4340;52.516;13.468;2022-08-01T02:19:37;7.70;;;6.30;;
8604;SDS011;4340;52.516;13.468;2022-08-01T02:22:06;6.90;;;6.40;;
8604;SDS011;4340;52.516;13.468;2022-08-01T02:24:37;7.50;;;6.90;;
8604;SDS011;4340;52.516;13.468;2022-08-01T02:27:09;33.27;;;22.77;;
8604;SDS011;4340;52.516;13.468;2022-08-01T02:29:39;7.30;;;6.70;;
8604;SDS011;4340;52.516;13.468;2022-08-01T02:32:09;7.80;;;6.93;;
8604;SDS011;4340;52.516;13.468;2022-08-01T02:34:41;7.47;;;6.87;;
8604;SDS011;4340;52.516;13.468;2022-08-01T02:37:12;7.43;;;6.87;;
8604;SDS011;4340;52.516;13.468;2022-08-01T02:39:40;7.80;;;7.10;;
8604;SDS011;4340;52.516;13.468;2022-08-01T02:42:08;6.70;;;6.10;;
8604;SDS011;4340;52.516;13.468;2022-08-01T02:44:37;7.10;;;6.60;;
8604;SDS011;4340;52.516;13.468;2022-08-01T02:47:07;7.30;;;6.60;;
8604;SDS011;4340;52.516;13.468;2022-08-01T02:49:36;6.80;;;6.30;;
8604;SDS011;4340;52.516;13.468;2022-08-01T02:52:06;7.00;;;6.30;;
8604;SDS011;4340;52.516;13.468;2022-08-01T02:54:35;7.20;;;6.70;;
8604;SDS011;4340;52.516;13.468;2022-08-01T02:57:03;9.03;;;7.40;;
8604;SDS011;4340;52.516;13.468;2022-08-01T02:59:31;6.97;;;6.47;;
8604;SDS011;4340;52.516;13.468;2022-08-01T03:02:02;7.60;;;7.00;;
8604;SDS011;4340;52.516;13.468;2022-08-01T03:04:30;7.60;;;6.90;;
8604;SDS011;4340;52.516;13.468;2022-08-01T03:06:58;7.40;;;6.80;;
8604;SDS011;4340;52.516;13.468;2022-08-01T03:09:29;7.53;;;6.90;;
8604;SDS011;4340;52.516;13.468;2022-08-01T03:11:59;7.60;;;7.03;;
8604;SDS011;4340;52.516;13.468;2022-08-01T03:14:28;11.57;;;6.80;;
8604;SDS011;4340;52.516;13.468;2022-08-01T03:16:56;7.30;;;6.70;;
8604;SDS011;4340;52.516;13.468;2022-08-01T03:19:25;7.80;;;6.70;;
8604;SDS011;4340;52.516;13.468;2022-08-01T03:21:53;6.93;;;6.40;;
8604;SDS011;4340;52.516;13.468;2022-08-01T03:24:23;7.63;;;6.93;;
8604;SDS011;4340;52.516;13.468;2022-08-01T03:26:53;8.10;;;7.40;;
8604;SDS011;4340;52.516;13.468;2022-08-01T03:29:23;7.63;;;6.83;;
8604;SDS011;4340;52.516;13.468;2022-08-01T03:31:51;8.20;;;6.70;;
8604;SDS011;4340;52.516;13.468;2022-08-01T03:34:20;7.43;;;6.83;;
8604;SDS011;4340;52.516;13.468;2022-08-01T03:36:47;9.50;;;6.80;;
8604;SDS011;4340;52.516;13.468;2022-08-01T03:39:19;8.30;;;7.00;;
8604;SDS011;4340;52.516;13.468;2022-08-01T03:41:51;7.73;;;7.00;;
8604;SDS011;4340;52.516;13.468;2022-08-01T03:44:23;7.10;;;6.40;;
8604;SDS011;4340;52.516;13.468;2022-08-01T03:46:54;7.00;;;6.40;;
8604;SDS011;4340;52.516;13.468;2022-08-01T03:49:25;7.50;;;6.50;;
8604;SDS011;4340;52.516;13.468;2022-08-01T03:51:55;7.77;;;7.10;;
8604;SDS011;4340;52.516;13.468;2022-08-01T03:54:23;7.27;;;6.77;;
8604;SDS011;4340;52.516;13.468;2022-08-01T03:56:53;6.60;;;6.20;;
8604;SDS011;4340;52.516;13.468;2022-08-01T03:59:21;7.40;;;6.70;;
8604;SDS011;4340;52.516;13.468;2022-08-01T04:01:48;7.60;;;6.60;;
8604;SDS011;4340;52.516;13.468;2022-08-01T04:04:15;8.00;;;6.77;;
8604;SDS011;4340;52.516;13.468;2022-08-01T04:06:42;7.63;;;6.93;;
8604;SDS011;4340;52.516;13.468;2022-08-01T04:09:10;6.63;;;6.13;;
8604;SDS011;4340;52.516;13.468;2022-08-01T04:11:37;7.47;;;6.70;;
8604;SDS011;4340;52.516;13.468;2022-08-01T04:14:05;19.87;;;16.30;;
8604;SDS011;4340;52.516;13.468;2022-08-01T04:16:31;9.77;;;7.07;;
8604;SDS011;4340;52.516;13.468;2022-08-01T04:18:59;7.77;;;6.67;;
8604;SDS011;4340;52.516;13.468;2022-08-01T04:21:26;8.30;;;7.47;;
8604;SDS011;4340;52.516;13.468;2022-08-01T04:23:55;10.67;;;7.40;;
8604;SDS011;4340;52.516;13.468;2022-08-01T04:26:26;8.33;;;7.50;;
8604;SDS011;4340;52.516;13.468;2022-08-01T04:28:55;9.80;;;7.73;;
8604;SDS011;4340;52.516;13.468;2022-08-01T04:31:23;8.87;;;7.63;;
8604;SDS011;4340;52.516;13.468;2022-08-01T04:33:51;10.80;;;7.10;;
8604;SDS011;4340;52.516;13.468;2022-08-01T04:36:21;9.00;;;7.57;;
8604;SDS011;4340;52.516;13.468;2022-08-01T04:38:50;10.60;;;8.20;;
8604;SDS011;4340;52.516;13.468;2022-08-01T04:41:21;9.47;;;8.03;;
8604;SDS011;4340;52.516;13.468;2022-08-01T04:43:49;13.30;;;9.53;;
8604;SDS011;4340;52.516;13.468;2022-08-01T04:46:17;10.93;;;9.50;;
8604;SDS011;4340;52.516;13.468;2022-08-01T04:48:46;18.43;;;9.60;;
8604;SDS011;4340;52.516;13.468;2022-08-01T04:51:13;15.27;;;10.13;;
8604;SDS011;4340;52.516;13.468;2022-08-01T04:53:41;12.00;;;10.70;;
8604;SDS011;4340;52.516;13.468;2022-08-01T04:56:07;16.80;;;10.67;;
8604;SDS011;4340;52.516;13.468;2022-08-01T04:58:34;17.83;;;11.03;;
8604;SDS011;4340;52.516;13.468;2022-08-01T05:01:01;12.53;;;10.93;;
8604;SDS011;4340;52.516;13.468;2022-08-01T05:03:27;12.87;;;11.50;;
8604;SDS011;4340;52.516;13.468;2022-08-01T05:05:55;13.10;;;11.77;;
8604;SDS011;4340;52.516;13.468;2022-08-01T05:08:22;12.77;;;11.03;;
8604;SDS011;4340;52.516;13.468;2022-08-01T05:10:48;15.40;;;12.27;;
8604;SDS011;4340;52.516;13.468;2022-08-01T05:13:14;15.57;;;12.13;;
8604;SDS011;4340;52.516;13.468;2022-08-01T05:15:41;14.30;;;12.73;;
8604;SDS011;4340;52.516;13.468;2022-08-01T05:18:08;15.33;;;13.03;;
8604;SDS011;4340;52.516;13.468;2022-08-01T05:20:34;15.53;;;13.23;;
8604;SDS011;4340;52.516;13.468;2022-08-01T05:23:03;16.60;;;13.60;;
8604;SDS011;4340;52.516;13.468;2022-08-01T05:25:29;15.33;;;12.80;;
8604;SDS011;4340;52.516;13.468;2022-08-01T05:27:56;15.90;;;13.37;;
8604;SDS011;4340;52.516;13.468;2022-08-01T05:30:22;17.60;;;14.70;;
8604;SDS011;4340;52.516;13.468;2022-08-01T05:32:49;16.53;;;13.87;;
8604;SDS011;4340;52.516;13.468;2022-08-01T05:35:15;16.13;;;13.47;;
8604;SDS011;4340;52.516;13.468;2022-08-01T05:37:42;16.13;;;13.77;;
8604;SDS011;4340;52.516;13.468;2022-08-01T05:40:10;23.53;;;13.00;;
8604;SDS011;4340;52.516;13.468;2022-08-01T05:42:37;14.60;;;12.77;;
8604;SDS011;4340;52.516;13.468;2022-08-01T05:45:04;14.63;;;13.00;;
8604;SDS011;4340;52.516;13.468;2022-08-01T05:47:31;14.50;;;12.20;;
8604;SDS011;4340;52.516;13.468;2022-08-01T05:49:58;15.43;;;13.13;;
8604;SDS011;4340;52.516;13.468;2022-08-01T05:52:24;16.90;;;13.07;;
8604;SDS011;4340;52.516;13.468;2022-08-01T05:54:51;14.07;;;12.40;;
8604;SDS011;4340;52.516;13.468;2022-08-01T05:57:19;13.03;;;11.73;;
8604;SDS011;4340;52.516;13.468;2022-08-01T05:59:45;12.57;;;11.20;;
8604;SDS011;4340;52.516;13.468;2022-08-01T06:02:12;11.60;;;10.40;;
8604;SDS011;4340;52.516;13.468;2022-08-01T06:04:38;14.70;;;10.90;;
8604;SDS011;4340;52.516;13.468;2022-08-01T06:07:05;14.70;;;11.10;;
8604;SDS011;4340;52.516;13.468;2022-08-01T06:09:31;11.10;;;10.00;;
8604;SDS011;4340;52.516;13.468;2022-08-01T06:11:58;12.20;;;10.20;;
8604;SDS011;4340;52.516;13.468;2022-08-01T06:14:27;11.40;;;8.97;;
8604;SDS011;4340;52.516;13.468;2022-08-01T06:16:54;10.47;;;8.67;;
8604;SDS011;4340;52.516;13.468;2022-08-01T06:19:20;10.80;;;9.03;;
8604;SDS011;4340;52.516;13.468;2022-08-01T06:21:47;11.27;;;8.77;;
8604;SDS011;4340;52.516;13.468;2022-08-01T06:24:13;10.50;;;8.90;;
8604;SDS011;4340;52.516;13.468;2022-08-01T06:26:40;11.43;;;8.30;;
8604;SDS011;4340;52.516;13.468;2022-08-01T06:29:07;8.13;;;7.40;;
8604;SDS011;4340;52.516;13.468;2022-08-01T06:31:35;10.30;;;8.47;;
8604;SDS011;4340;52.516;13.468;2022-08-01T06:34:01;9.33;;;8.17;;
8604;SDS011;4340;52.516;13.468;2022-08-01T06:36:28;12.57;;;8.00;;
8604;SDS011;4340;52.516;13.468;2022-08-01T06:38:54;7.40;;;6.80;;
8604;SDS011;4340;52.516;13.468;2022-08-01T06:41:21;8.73;;;6.53;;
8604;SDS011;4340;52.516;13.468;2022-08-01T06:43:47;6.43;;;6.03;;
8604;SDS011;4340;52.516;13.468;2022-08-01T06:46:14;6.30;;;5.80;;
8604;SDS011;4340;52.516;13.468;2022-08-01T06:48:42;5.90;;;5.30;;
8604;SDS011;4340;52.516;13.468;2022-08-01T06:51:08;5.80;;;5.23;;
8604;SDS011;4340;52.516;13.468;2022-08-01T06:53:38;5.80;;;5.30;;
8604;SDS011;4340;52.516;13.468;2022-08-01T06:56:05;6.80;;;5.20;;
8604;SDS011;4340;52.516;13.468;2022-08-01T06:58:33;5.67;;;5.27;;
8604;SDS011;4340;52.516;13.468;2022-08-01T07:01:00;5.00;;;4.60;;
8604;SDS011;4340;52.516;13.468;2022-08-01T07:03:27;4.87;;;4.57;;
8604;SDS011;4340;52.516;13.468;2022-08-01T07:05:55;5.20;;;4.67;;
8604;SDS011;4340;52.516;13.468;2022-08-01T07:08:21;4.90;;;4.07;;
8604;SDS011;4340;52.516;13.468;2022-08-01T07:10:47;5.03;;;4.53;;
8604;SDS011;4340;52.516;13.468;2022-08-01T07:13:14;5.07;;;4.70;;
8604;SDS011;4340;52.516;13.468;2022-08-01T07:15:45;6.73;;;4.20;;
8604;SDS011;4340;52.516;13.468;2022-08-01T07:18:12;5.07;;;4.47;;
8604;SDS011;4340;52.516;13.468;2022-08-01T07:20:38;5.37;;;4.67;;
8604;SDS011;4340;52.516;13.468;2022-08-01T07:23:06;5.17;;;4.67;;
8604;SDS011;4340;52.516;13.468;2022-08-01T07:25:33;4.40;;;4.00;;
8604;SDS011;4340;52.516;13.468;2022-08-01T07:27:59;5.10;;;4.60;;
8604;SDS011;4340;52.516;13.468;2022-08-01T07:30:26;4.50;;;4.20;;
8604;SDS011;4340;52.516;13.468;2022-08-01T07:32:52;4.80;;;4.50;;
8604;SDS011;4340;52.516;13.468;2022-08-01T07:35:19;4.00;;;3.80;;
8604;SDS011;4340;52.516;13.468;2022-08-01T07:37:45;4.70;;;4.40;;
8604;SDS011;4340;52.516;13.468;2022-08-01T07:40:13;4.93;;;4.53;;
8604;SDS011;4340;52.516;13.468;2022-08-01T07:42:40;8.20;;;4.20;;
8604;SDS011;4340;52.516;13.468;2022-08-01T07:45:08;4.87;;;4.57;;
8604;SDS011;4340;52.516;13.468;2022-08-01T07:47:35;7.80;;;7.00;;
8604;SDS011;4340;52.516;13.468;2022-08-01T07:50:02;5.80;;;5.30;;
8604;SDS011;4340;52.516;13.468;2022-08-01T07:52:30;4.90;;;4.60;;
8604;SDS011;4340;52.516;13.468;2022-08-01T07:54:57;4.43;;;4.13;;
8604;SDS011;4340;52.516;13.468;2022-08-01T07:57:25;5.33;;;4.53;;
8604;SDS011;4340;52.516;13.468;2022-08-01T07:59:52;4.90;;;4.50;;
8604;SDS011;4340;52.516;13.468;2022-08-01T08:02:18;4.73;;;4.33;;
8604;SDS011;4340;52.516;13.468;2022-08-01T08:04:45;4.57;;;4.37;;
8604;SDS011;4340;52.516;13.468;2022-08-01T08:07:11;5.00;;;4.60;;
8604;SDS011;4340;52.516;13.468;2022-08-01T08:09:38;4.70;;;4.30;;
8604;SDS011;4340;52.516;13.468;2022-08-01T08:12:05;5.00;;;4.70;;
8604;SDS011;4340;52.516;13.468;2022-08-01T08:14:33;5.20;;;4.90;;
8604;SDS011;4340;52.516;13.468;2022-08-01T08:17:00;5.50;;;5.00;;
8604;SDS011;4340;52.516;13.468;2022-08-01T08:19:26;5.37;;;4.87;;
8604;SDS011;4340;52.516;13.468;2022-08-01T08:21:53;5.50;;;5.10;;
8604;SDS011;4340;52.516;13.468;2022-08-01T08:24:19;5.97;;;5.50;;
8604;SDS011;4340;52.516;13.468;2022-08-01T08:26:46;6.13;;;5.63;;
8604;SDS011;4340;52.516;13.468;2022-08-01T08:29:13;6.67;;;6.03;;
8604;SDS011;4340;52.516;13.468;2022-08-01T08:31:41;5.77;;;5.30;;
8604;SDS011;4340;52.516;13.468;2022-08-01T08:34:08;6.10;;;5.60;;
8604;SDS011;4340;52.516;13.468;2022-08-01T08:36:35;5.67;;;5.17;;
8604;SDS011;4340;52.516;13.468;2022-08-01T08:39:02;5.43;;;5.03;;
8604;SDS011;4340;52.516;13.468;2022-08-01T08:41:29;4.70;;;4.13;;
8604;SDS011;4340;52.516;13.468;2022-08-01T08:43:56;4.50;;;4.20;;
8604;SDS011;4340;52.516;13.468;2022-08-01T08:46:24;4.17;;;3.87;;
8604;SDS011;4340;52.516;13.468;2022-08-01T08:48:54;5.53;;;4.40;;
8604;SDS011;4340;52.516;13.468;2022-08-01T08:51:23;4.53;;;4.23;;
8604;SDS011;4340;52.516;13.468;2022-08-01T08:53:51;6.03;;;4.13;;
8604;SDS011;4340;52.516;13.468;2022-08-01T08:56:20;4.60;;;4.20;;
8604;SDS011;4340;52.516;13.468;2022-08-01T08:58:49;4.87;;;4.40;;
8604;SDS011;4340;52.516;13.468;2022-08-01T09:01:17;4.43;;;4.17;;
8604;SDS011;4340;52.516;13.468;2022-08-01T09:03:44;3.53;;;3.33;;
8604;SDS011;4340;52.516;13.468;2022-08-01T09:06:12;3.40;;;3.10;;
8604;SDS011;4340;52.516;13.468;2022-08-01T09:08:39;9.30;;;8.40;;
8604;SDS011;4340;52.516;13.468;2022-08-01T09:11:05;4.93;;;2.20;;
8604;SDS011;4340;52.516;13.468;2022-08-01T09:13:32;2.50;;;2.40;;
8604;SDS011;4340;52.516;13.468;2022-08-01T09:15:58;2.50;;;2.40;;
8604;SDS011;4340;52.516;13.468;2022-08-01T09:18:25;2.50;;;2.40;;
8604;SDS011;4340;52.516;13.468;2022-08-01T09:21:06;2.60;;;2.50;;
8604;SDS011;4340;52.516;13.468;2022-08-01T09:23:37;2.50;;;1.80;;
8604;SDS011;4340;52.516;13.468;2022-08-01T09:26:07;1.90;;;1.80;;
8604;SDS011;4340;52.516;13.468;2022-08-01T09:28:34;2.00;;;1.90;;
8604;SDS011;4340;52.516;13.468;2022-08-01T09:31:05;2.17;;;2.03;;
8604;SDS011;4340;52.516;13.468;2022-08-01T09:33:46;2.00;;;1.90;;
8604;SDS011;4340;52.516;13.468;2022-08-01T09:36:17;1.93;;;1.93;;
8604;SDS011;4340;52.516;13.468;2022-08-01T09:38:45;2.23;;;1.93;;
8604;SDS011;4340;52.516;13.468;2022-08-01T09:41:12;38.53;;;3.63;;
8604;SDS011;4340;52.516;13.468;2022-08-01T09:43:39;2.60;;;2.00;;
8604;SDS011;4340;52.516;13.468;2022-08-01T09:46:08;2.47;;;2.37;;
8604;SDS011;4340;52.516;13.468;2022-08-01T09:48:36;2.50;;;2.40;;
8604;SDS011;4340;52.516;13.468;2022-08-01T09:51:04;3.03;;;2.80;;
8604;SDS011;4340;52.516;13.468;2022-08-01T09:53:42;2.93;;;2.80;;
8604;SDS011;4340;52.516;13.468;2022-08-01T09:56:12;2.53;;;2.37;;
8604;SDS011;4340;52.516;13.468;2022-08-01T09:58:48;4.30;;;2.50;;
8604;SDS011;4340;52.516;13.468;2022-08-01T10:01:16;2.70;;;2.50;;
8604;SDS011;4340;52.516;13.468;2022-08-01T10:03:42;2.90;;;2.70;;
8604;SDS011;4340;52.516;13.468;2022-08-01T10:06:18;2.90;;;2.67;;
8604;SDS011;4340;52.516;13.468;2022-08-01T10:08:46;22.37;;;4.10;;
8604;SDS011;4340;52.516;13.468;2022-08-01T10:11:14;46.03;;;5.00;;
8604;SDS011;4340;52.516;13.468;2022-08-01T10:13:40;9.97;;;3.80;;
8604;SDS011;4340;52.516;13.468;2022-08-01T10:16:07;13.00;;;3.70;;
8604;SDS011;4340;52.516;13.468;2022-08-01T10:18:34;45.00;;;5.97;;
8604;SDS011;4340;52.516;13.468;2022-08-01T10:21:02;24.10;;;4.90;;
8604;SDS011;4340;52.516;13.468;2022-08-01T10:23:30;13.97;;;3.47;;
8604;SDS011;4340;52.516;13.468;2022-08-01T10:26:00;20.67;;;4.47;;
8604;SDS011;4340;52.516;13.468;2022-08-01T10:28:29;15.57;;;3.60;;
8604;SDS011;4340;52.516;13.468;2022-08-01T10:30:57;18.43;;;4.00;;
8604;SDS011;4340;52.516;13.468;2022-08-01T10:33:24;3.90;;;2.90;;
8604;SDS011;4340;52.516;13.468;2022-08-01T10:35:51;25.77;;;8.63;;
8604;SDS011;4340;52.516;13.468;2022-08-01T10:38:18;10.67;;;3.83;;
8604;SDS011;4340;52.516;13.468;2022-08-01T10:40:45;27.30;;;5.50;;
8604;SDS011;4340;52.516;13.468;2022-08-01T10:43:12;29.87;;;5.57;;
8604;SDS011;4340;52.516;13.468;2022-08-01T10:45:40;5.60;;;3.30;;
8604;SDS011;4340;52.516;13.468;2022-08-01T10:48:09;25.67;;;4.50;;
8604;SDS011;4340;52.516;13.468;2022-08-01T10:50:43;8.37;;;3.17;;
8604;SDS011;4340;52.516;13.468;2022-08-01T10:53:12;40.60;;;5.60;;
8604;SDS011;4340;52.516;13.468;2022-08-01T10:55:47;55.77;;;7.13;;
8604;SDS011;4340;52.516;13.468;2022-08-01T10:58:19;56.90;;;7.50;;
8604;SDS011;4340;52.516;13.468;2022-08-01T11:00:48;18.33;;;4.77;;
8604;SDS011;4340;52.516;13.468;2022-08-01T11:03:37;23.37;;;3.73;;
8604;SDS011;4340;52.516;13.468;2022-08-01T11:06:04;23.13;;;2.97;;
8604;SDS011;4340;52.516;13.468;2022-08-01T11:08:31;7.53;;;2.73;;
8604;SDS011;4340;52.516;13.468;2022-08-01T11:11:02;15.53;;;3.07;;
8604;SDS011;4340;52.516;13.468;2022-08-01T11:16:34;6.93;;;2.37;;
8604;SDS011;4340;52.516;13.468;2022-08-01T11:19:01;16.27;;;2.90;;
8604;SDS011;4340;52.516;13.468;2022-08-01T11:27:25;13.20;;;2.87;;
8604;SDS011;4340;52.516;13.468;2022-08-01T11:32:50;2.20;;;2.00;;
8604;SDS011;4340;52.516;13.468;2022-08-01T11:35:18;2.47;;;2.30;;
8604;SDS011;4340;52.516;13.468;2022-08-01T11:37:45;2.23;;;2.07;;
8604;SDS011;4340;52.516;13.468;2022-08-01T11:40:16;2.40;;;2.20;;
8604;SDS011;4340;52.516;13.468;2022-08-01T11:42:44;2.40;;;2.20;;
8604;SDS011;4340;52.516;13.468;2022-08-01T11:45:10;2.70;;;2.50;;
8604;SDS011;4340;52.516;13.468;2022-08-01T11:47:42;7.53;;;2.80;;
8604;SDS011;4340;52.516;13.468;2022-08-01T11:53:00;2.10;;;2.10;;
8604;SDS011;4340;52.516;13.468;2022-08-01T11:55:28;2.50;;;2.00;;
8604;SDS011;4340;52.516;13.468;2022-08-01T11:57:59;2.00;;;1.90;;
8604;SDS011;4340;52.516;13.468;2022-08-01T12:00:27;3.50;;;3.20;;
8604;SDS011;4340;52.516;13.468;2022-08-01T12:02:58;4.30;;;2.00;;
8604;SDS011;4340;52.516;13.468;2022-08-01T12:05:26;2.53;;;2.30;;
8604;SDS011;4340;52.516;13.468;2022-08-01T12:07:55;2.20;;;2.10;;
8604;SDS011;4340;52.516;13.468;2022-08-01T12:10:24;2.40;;;1.97;;
8604;SDS011;4340;52.516;13.468;2022-08-01T12:12:53;1.77;;;1.63;;
8604;SDS011;4340;52.516;13.468;2022-08-01T12:15:21;2.33;;;2.03;;
8604;SDS011;4340;52.516;13.468;2022-08-01T12:17:49;2.50;;;1.90;;
8604;SDS011;4340;52.516;13.468;2022-08-01T12:20:21;2.13;;;1.57;;
8604;SDS011;4340;52.516;13.468;2022-08-01T12:22:52;2.10;;;1.70;;
8604;SDS011;4340;52.516;13.468;2022-08-01T12:25:21;4.57;;;1.80;;
8604;SDS011;4340;52.516;13.468;2022-08-01T12:27:48;6.03;;;3.57;;
8604;SDS011;4340;52.516;13.468;2022-08-01T12:30:16;2.10;;;2.10;;
8604;SDS011;4340;52.516;13.468;2022-08-01T12:32:45;21.13;;;3.80;;
8604;SDS011;4340;52.516;13.468;2022-08-01T12:35:13;18.40;;;3.10;;
8604;SDS011;4340;52.516;13.468;2022-08-01T12:37:42;2.30;;;2.03;;
8604;SDS011;4340;52.516;13.468;2022-08-01T12:40:10;10.83;;;2.87;;
8604;SDS011;4340;52.516;13.468;2022-08-01T12:42:40;4.80;;;2.10;;
8604;SDS011;4340;52.516;13.468;2022-08-01T12:45:08;2.87;;;2.13;;
8604;SDS011;4340;52.516;13.468;2022-08-01T12:47:37;1.80;;;1.80;;
8604;SDS011;4340;52.516;13.468;2022-08-01T12:50:05;2.53;;;2.40;;
8604;SDS011;4340;52.516;13.468;2022-08-01T12:52:33;2.50;;;2.10;;
8604;SDS011;4340;52.516;13.468;2022-08-01T12:55:04;3.00;;;2.90;;
8604;SDS011;4340;52.516;13.468;2022-08-01T12:57:33;2.63;;;2.43;;
8604;SDS011;4340;52.516;13.468;2022-08-01T13:00:08;4.57;;;2.47;;
8604;SDS011;4340;52.516;13.468;2022-08-01T13:02:37;3.00;;;2.90;;
8604;SDS011;4340;52.516;13.468;2022-08-01T13:05:05;5.83;;;2.30;;
8604;SDS011;4340;52.516;13.468;2022-08-01T13:07:37;2.70;;;2.50;;
8604;SDS011;4340;52.516;13.468;2022-08-01T13:10:09;3.10;;;3.00;;
8604;SDS011;4340;52.516;13.468;2022-08-01T13:12:37;3.13;;;2.73;;
8604;SDS011;4340;52.516;13.468;2022-08-01T13:15:22;4.63;;;2.27;;
8604;SDS011;4340;52.516;13.468;2022-08-01T13:17:51;2.83;;;2.40;;
8604;SDS011;4340;52.516;13.468;2022-08-01T13:20:28;6.13;;;2.97;;
8604;SDS011;4340;52.516;13.468;2022-08-01T13:23:09;2.27;;;2.17;;
8604;SDS011;4340;52.516;13.468;2022-08-01T13:25:46;3.43;;;2.50;;
8604;SDS011;4340;52.516;13.468;2022-08-01T13:28:18;3.20;;;2.87;;
8604;SDS011;4340;52.516;13.468;2022-08-01T13:30:53;2.60;;;2.50;;
8604;SDS011;4340;52.516;13.468;2022-08-01T13:33:21;2.70;;;2.60;;
8604;SDS011;4340;52.516;13.468;2022-08-01T13:35:49;7.60;;;3.63;;
8604;SDS011;4340;52.516;13.468;2022-08-01T13:38:16;4.40;;;3.10;;
8604;SDS011;4340;52.516;13.468;2022-08-01T13:40:43;3.10;;;2.60;;
8604;SDS011;4340;52.516;13.468;2022-08-01T13:43:09;3.43;;;2.90;;
8604;SDS011;4340;52.516;13.468;2022-08-01T13:45:36;3.30;;;3.20;;
8604;SDS011;4340;52.516;13.468;2022-08-01T13:48:05;2.73;;;2.63;;
8604;SDS011;4340;52.516;13.468;2022-08-01T13:50:31;4.40;;;2.50;;
8604;SDS011;4340;52.516;13.468;2022-08-01T13:52:58;2.23;;;2.13;;
8604;SDS011;4340;52.516;13.468;2022-08-01T13:55:25;6.20;;;2.30;;
8604;SDS011;4340;52.516;13.468;2022-08-01T13:57:51;3.37;;;1.87;;
8604;SDS011;4340;52.516;13.468;2022-08-01T14:00:18;2.00;;;1.90;;
8604;SDS011;4340;52.516;13.468;2022-08-01T14:02:44;2.70;;;2.50;;
8604;SDS011;4340;52.516;13.468;2022-08-01T14:05:12;2.97;;;2.70;;
8604;SDS011;4340;52.516;13.468;2022-08-01T14:07:39;2.93;;;2.83;;
8604;SDS011;4340;52.516;13.468;2022-08-01T14:10:05;2.87;;;2.70;;
8604;SDS011;4340;52.516;13.468;2022-08-01T14:12:33;2.90;;;2.80;;
8604;SDS011;4340;52.516;13.468;2022-08-01T14:15:00;2.63;;;2.53;;
8604;SDS011;4340;52.516;13.468;2022-08-01T14:17:27;3.13;;;2.93;;
8604;SDS011;4340;52.516;13.468;2022-08-01T14:19:53;4.40;;;2.63;;
8604;SDS011;4340;52.516;13.468;2022-08-01T14:22:22;3.23;;;2.90;;
8604;SDS011;4340;52.516;13.468;2022-08-01T14:24:49;2.67;;;2.50;;
8604;SDS011;4340;52.516;13.468;2022-08-01T14:27:15;9.10;;;2.80;;
8604;SDS011;4340;52.516;13.468;2022-08-01T14:29:42;4.10;;;3.10;;
8604;SDS011;4340;52.516;13.468;2022-08-01T14:32:11;3.90;;;2.50;;
8604;SDS011;4340;52.516;13.468;2022-08-01T14:34:38;2.70;;;2.50;;
8604;SDS011;4340;52.516;13.468;2022-08-01T14:37:05;3.83;;;2.60;;
8604;SDS011;4340;52.516;13.468;2022-08-01T14:39:33;2.60;;;2.50;;
8604;SDS011;4340;52.516;13.468;2022-08-01T14:41:59;3.27;;;3.00;;
8604;SDS011;4340;52.516;13.468;2022-08-01T14:44:26;2.20;;;2.20;;
8604;SDS011;4340;52.516;13.468;2022-08-01T14:46:52;2.43;;;2.17;;
8604;SDS011;4340;52.516;13.468;2022-08-01T14:49:19;2.53;;;2.43;;
8604;SDS011;4340;52.516;13.468;2022-08-01T14:51:46;2.60;;;2.00;;
8604;SDS011;4340;52.516;13.468;2022-08-01T14:54:12;2.30;;;2.20;;
8604;SDS011;4340;52.516;13.468;2022-08-01T14:56:40;3.17;;;2.37;;
8604;SDS011;4340;52.516;13.468;2022-08-01T14:59:07;3.13;;;2.30;;
8604;SDS011;4340;52.516;13.468;2022-08-01T15:01:33;2.10;;;2.00;;
8604;SDS011;4340;52.516;13.468;2022-08-01T15:04:00;2.80;;;2.60;;
8604;SDS011;4340;52.516;13.468;2022-08-01T15:06:27;2.90;;;2.60;;
8604;SDS011;4340;52.516;13.468;2022-08-01T15:08:54;3.17;;;2.47;;
8604;SDS011;4340;52.516;13.468;2022-08-01T15:11:20;2.30;;;2.20;;
8604;SDS011;4340;52.516;13.468;2022-08-01T15:13:48;5.23;;;2.60;;
8604;SDS011;4340;52.516;13.468;2022-08-01T15:16:36;2.63;;;2.43;;
8604;SDS011;4340;52.516;13.468;2022-08-01T15:19:02;6.50;;;2.50;;